Time;durP1;ratioP1;P1;durP2;ratioP2;P2;SDS_P1;SDS_P2;PMS_P1;PMS_P2;Temp;Humidity;BMP_temperature;BMP_pressure;BME280_temperature;BME280_humidity;BME280_pressure;Samples;Min_cycle;Max_cycle;Signal;HPM_P1;HPM_P2
2023/05/04 00:01:27;;;;;;;5.50;2.60;;;16.50;99.90;;;;;;5032922;28;20269;-83
2023/05/04 00:03:54;;;;;;;3.92;2.42;;;16.50;99.90;;;;;;5032825;28;20331;-72
2023/05/04 00:06:21;;;;;;;3.03;2.60;;;16.50;99.90;;;;;;5033370;28;20200;-83
2023/05/04 00:08:49;;;;;;;4.68;2.83;;;16.50;99.90;;;;;;5033008;28;20308;-85
2023/05/04 00:11:16;;;;;;;2.63;2.40;;;16.50;99.90;;;;;;5032441;28;20207;-85
2023/05/04 00:13:43;;;;;;;6.18;2.65;;;16.50;99.90;;;;;;5032874;28;20207;-85
2023/05/04 00:16:11;;;;;;;4.32;2.70;;;16.50;99.90;;;;;;5032447;28;20227;-74
2023/05/04 00:18:38;;;;;;;3.28;2.75;;;16.50;99.90;;;;;;5032521;28;20203;-81
2023/05/04 00:21:05;;;;;;;4.78;2.70;;;16.40;99.90;;;;;;5032113;28;20341;-83
2023/05/04 00:23:32;;;;;;;4.32;2.25;;;16.40;99.90;;;;;;5032299;28;20245;-83
2023/05/04 00:26:00;;;;;;;5.50;2.58;;;16.50;99.90;;;;;;5031728;28;20694;-76
2023/05/04 00:28:27;;;;;;;3.10;2.15;;;16.40;99.90;;;;;;5031842;28;20573;-74
2023/05/04 00:30:54;;;;;;;4.10;2.70;;;16.40;99.90;;;;;;5032120;28;20675;-70
2023/05/04 00:33:22;;;;;;;5.50;3.40;;;16.40;99.90;;;;;;5032468;28;20242;-79
2023/05/04 00:35:49;;;;;;;4.40;3.22;;;16.40;99.90;;;;;;5032522;28;20667;-83
2023/05/04 00:38:17;;;;;;;3.63;3.22;;;16.50;99.90;;;;;;5031865;28;20738;-74
2023/05/04 00:40:44;;;;;;;4.47;3.33;;;16.50;99.90;;;;;;5031984;28;20238;-75
2023/05/04 00:43:13;;;;;;;3.70;2.78;;;16.50;99.90;;;;;;5031373;28;20235;-75
2023/05/04 00:45:40;;;;;;;5.25;3.95;;;16.40;99.90;;;;;;5031657;28;20246;-75
2023/05/04 00:48:08;;;;;;;4.10;3.70;;;16.40;99.90;;;;;;5031155;28;20231;-76
2023/05/04 00:50:36;;;;;;;6.55;3.42;;;16.40;99.90;;;;;;5031722;28;20230;-75
2023/05/04 00:53:09;;;;;;;4.13;3.65;;;16.40;99.90;;;;;;5030815;28;20691;-77
2023/05/04 00:55:38;;;;;;;4.68;3.50;;;16.40;99.90;;;;;;5031417;28;20204;-76
2023/05/04 00:58:07;;;;;;;5.97;4.03;;;16.40;99.90;;;;;;5031231;28;20203;-75
2023/05/04 01:00:36;;;;;;;6.97;3.28;;;16.40;99.90;;;;;;5031552;28;20298;-78
2023/05/04 01:03:03;;;;;;;6.65;3.20;;;16.40;99.90;;;;;;5030654;28;20235;-79
2023/05/04 01:05:35;;;;;;;4.22;3.83;;;16.30;99.90;;;;;;5031598;28;20351;-73
2023/05/04 01:08:07;;;;;;;5.13;3.55;;;16.30;99.90;;;;;;5030945;28;20204;-79
2023/05/04 01:10:39;;;;;;;6.80;3.80;;;16.30;99.90;;;;;;5031575;28;20213;-80
2023/05/04 01:13:09;;;;;;;5.03;3.30;;;16.30;99.90;;;;;;5031034;28;20261;-79
2023/05/04 01:15:38;;;;;;;7.30;4.15;;;16.30;99.90;;;;;;5031223;28;20235;-81
2023/05/04 01:18:05;;;;;;;4.50;3.83;;;16.30;99.90;;;;;;5030698;28;20231;-84
2023/05/04 01:20:32;;;;;;;3.97;3.65;;;16.30;99.90;;;;;;5030955;28;20243;-84
2023/05/04 01:23:01;;;;;;;5.38;2.65;;;16.20;99.90;;;;;;5030933;28;20263;-87
2023/05/04 01:25:32;;;;;;;3.08;2.83;;;16.30;99.90;;;;;;5031343;28;20241;-85
2023/05/04 01:28:06;;;;;;;5.13;3.25;;;16.30;99.90;;;;;;5030644;28;20234;-80
2023/05/04 01:30:37;;;;;;;6.50;3.47;;;16.30;99.90;;;;;;5030693;28;20243;-78
2023/05/04 01:33:04;;;;;;;4.22;3.45;;;16.30;99.90;;;;;;5030778;28;20234;-79
2023/05/04 01:35:31;;;;;;;12.25;4.00;;;16.30;99.90;;;;;;5031191;28;20239;-79
2023/05/04 01:38:00;;;;;;;4.20;3.78;;;16.20;99.90;;;;;;5030925;28;20204;-85
2023/05/04 01:40:27;;;;;;;3.30;3.00;;;16.30;99.90;;;;;;5030778;28;20235;-83
2023/05/04 01:42:54;;;;;;;4.72;3.65;;;16.30;99.90;;;;;;5030753;28;20243;-74
2023/05/04 01:45:21;;;;;;;2.88;2.60;;;16.20;99.90;;;;;;5031369;28;20239;-78
2023/05/04 01:47:49;;;;;;;5.35;4.45;;;16.20;99.90;;;;;;5031051;28;20247;-78
2023/05/04 01:50:16;;;;;;;7.72;3.20;;;16.20;99.90;;;;;;5030686;28;20626;-85
2023/05/04 01:52:42;;;;;;;5.00;3.63;;;16.20;99.90;;;;;;5030882;28;20241;-80
2023/05/04 01:55:11;;;;;;;3.08;2.78;;;16.30;99.90;;;;;;5030555;28;20239;-81
2023/05/04 01:57:38;;;;;;;5.95;3.95;;;16.20;99.90;;;;;;5030675;28;20246;-79
2023/05/04 02:00:05;;;;;;;5.75;3.75;;;16.20;99.90;;;;;;5030591;28;20245;-84
2023/05/04 02:02:32;;;;;;;5.93;3.85;;;16.30;99.90;;;;;;5030709;28;20246;-82
2023/05/04 02:04:59;;;;;;;3.97;3.60;;;16.30;99.90;;;;;;5030151;28;20270;-79
2023/05/04 02:07:26;;;;;;;4.82;3.80;;;16.30;99.90;;;;;;5030649;28;20277;-80
2023/05/04 02:09:53;;;;;;;3.88;3.55;;;16.30;99.90;;;;;;5030890;28;20243;-82
2023/05/04 02:12:21;;;;;;;6.45;4.65;;;16.30;99.90;;;;;;5030790;28;20245;-83
2023/05/04 02:14:48;;;;;;;4.50;3.70;;;16.30;99.90;;;;;;5030412;28;20675;-82
2023/05/04 02:17:15;;;;;;;4.45;3.85;;;16.30;99.90;;;;;;5030318;28;20261;-76
2023/05/04 02:19:42;;;;;;;4.18;3.78;;;16.30;99.90;;;;;;5030467;28;20211;-76
2023/05/04 02:22:09;;;;;;;6.70;3.85;;;16.20;99.90;;;;;;5030212;28;20204;-81
2023/05/04 02:24:35;;;;;;;3.90;3.60;;;16.30;99.90;;;;;;5030839;28;20347;-84
2023/05/04 02:27:02;;;;;;;5.18;4.20;;;16.30;99.90;;;;;;5030679;28;20249;-82
2023/05/04 02:29:31;;;;;;;5.50;4.57;;;16.30;99.90;;;;;;5031022;28;20242;-84
2023/05/04 02:31:58;;;;;;;4.68;4.28;;;16.30;99.90;;;;;;5032128;28;20329;-82
2023/05/04 02:34:25;;;;;;;5.05;4.55;;;16.30;99.90;;;;;;5034710;28;20250;-76
2023/05/04 02:36:51;;;;;;;5.88;3.58;;;16.40;99.90;;;;;;5034700;28;20207;-79
2023/05/04 02:39:18;;;;;;;4.93;4.50;;;16.40;99.90;;;;;;5034067;28;20235;-82
2023/05/04 02:41:45;;;;;;;5.50;5.10;;;16.30;99.90;;;;;;5034652;28;20203;-81
2023/05/04 02:44:12;;;;;;;7.00;4.78;;;16.40;99.90;;;;;;5034024;28;20239;-81
2023/05/04 02:46:40;;;;;;;6.25;3.92;;;16.40;99.90;;;;;;5034409;28;20231;-79
2023/05/04 02:49:07;;;;;;;6.30;4.70;;;16.40;99.90;;;;;;5033662;28;20724;-81
2023/05/04 02:51:34;;;;;;;10.60;4.47;;;16.40;99.90;;;;;;5034295;28;20200;-80
2023/05/04 02:54:01;;;;;;;5.53;3.63;;;16.40;99.90;;;;;;5034141;28;20254;-77
2023/05/04 02:56:28;;;;;;;5.40;4.93;;;16.50;99.90;;;;;;5034241;28;20246;-78
2023/05/04 02:58:55;;;;;;;4.57;4.18;;;16.40;99.90;;;;;;5033711;28;20239;-77
2023/05/04 03:01:22;;;;;;;6.53;3.92;;;16.50;99.90;;;;;;5034082;28;20300;-74
2023/05/04 03:03:50;;;;;;;5.80;4.20;;;16.50;99.90;;;;;;5033969;28;20258;-75
2023/05/04 03:06:17;;;;;;;6.97;4.22;;;16.40;99.90;;;;;;5033348;28;20294;-75
2023/05/04 03:08:44;;;;;;;5.55;4.40;;;16.50;99.90;;;;;;5033830;28;20239;-74
2023/05/04 03:11:11;;;;;;;7.03;4.30;;;16.40;99.90;;;;;;5033159;28;20250;-74
2023/05/04 03:13:38;;;;;;;5.20;4.53;;;16.50;99.90;;;;;;5033446;28;20207;-76
2023/05/04 03:16:05;;;;;;;6.32;4.13;;;16.40;99.90;;;;;;5032839;28;20679;-74
2023/05/04 03:18:32;;;;;;;5.40;4.40;;;16.50;99.90;;;;;;5033323;28;20247;-73
2023/05/04 03:21:00;;;;;;;5.50;4.97;;;16.50;99.90;;;;;;5033085;28;20235;-73
2023/05/04 03:23:27;;;;;;;6.30;4.50;;;16.60;99.90;;;;;;5033382;28;20235;-73
2023/05/04 03:25:55;;;;;;;7.32;4.55;;;16.60;99.90;;;;;;5033495;28;20245;-71
2023/05/04 03:28:22;;;;;;;7.65;4.07;;;16.70;99.90;;;;;;5033236;28;20675;-75
2023/05/04 03:30:49;;;;;;;7.63;5.05;;;16.70;99.90;;;;;;5033555;28;20231;-79
2023/05/04 03:33:16;;;;;;;9.43;5.45;;;16.70;99.90;;;;;;5032717;28;20298;-72
2023/05/04 03:35:42;;;;;;;4.13;3.83;;;16.70;99.90;;;;;;5033250;28;20274;-72
2023/05/04 03:38:11;;;;;;;5.60;4.28;;;16.70;99.90;;;;;;5032582;28;20246;-71
2023/05/04 03:40:38;;;;;;;5.35;4.85;;;16.70;99.90;;;;;;5033049;28;20235;-71
2023/05/04 03:43:05;;;;;;;4.40;3.60;;;16.70;99.90;;;;;;5031838;28;20647;-71
2023/05/04 03:45:33;;;;;;;6.35;3.90;;;16.60;99.90;;;;;;5058395;28;20792;-74
2023/05/04 03:48:00;;;;;;;6.53;4.97;;;16.60;99.90;;;;;;5052283;28;20221;-75
2023/05/04 03:50:26;;;;;;;5.53;4.97;;;16.60;99.90;;;;;;5040664;28;20285;-76
2023/05/04 03:52:53;;;;;;;10.10;4.80;;;16.70;99.90;;;;;;5033036;28;20242;-76
2023/05/04 03:55:22;;;;;;;6.70;5.72;;;16.60;99.90;;;;;;5032695;28;20235;-75
2023/05/04 03:57:49;;;;;;;10.68;4.57;;;16.70;99.90;;;;;;5032846;28;20286;-74
2023/05/04 04:00:17;;;;;;;7.13;4.80;;;16.70;99.90;;;;;;5032073;28;20247;-77
2023/05/04 04:02:44;;;;;;;10.00;5.18;;;16.70;99.90;;;;;;5045029;28;20419;-77
2023/05/04 04:05:11;;;;;;;6.55;4.78;;;16.70;99.90;;;;;;5051750;28;20266;-75
2023/05/04 04:07:38;;;;;;;11.73;5.65;;;16.70;99.90;;;;;;5052402;28;20245;-76
2023/05/04 04:10:05;;;;;;;10.55;5.57;;;16.70;99.90;;;;;;5051896;28;20313;-76
2023/05/04 04:12:34;;;;;;;6.30;4.63;;;16.70;99.90;;;;;;5052316;28;20234;-75
2023/05/04 04:15:01;;;;;;;5.95;5.35;;;16.70;99.90;;;;;;5051473;28;20205;-76
2023/05/04 04:17:28;;;;;;;7.78;4.53;;;16.70;99.90;;;;;;5052326;28;20202;-75
2023/05/04 04:19:55;;;;;;;5.65;4.82;;;16.70;99.90;;;;;;5052331;28;20234;-72
2023/05/04 04:22:21;;;;;;;7.50;5.38;;;16.70;99.90;;;;;;5052189;28;20253;-76
2023/05/04 04:24:48;;;;;;;8.18;5.93;;;16.70;99.90;;;;;;5051740;28;20266;-74
2023/05/04 04:27:15;;;;;;;8.15;6.15;;;16.80;99.90;;;;;;5051253;28;20712;-76
2023/05/04 04:29:43;;;;;;;6.07;5.15;;;16.80;99.90;;;;;;5052020;28;20238;-74
2023/05/04 04:32:10;;;;;;;5.30;4.47;;;16.80;99.90;;;;;;5051701;28;20235;-76
2023/05/04 04:34:37;;;;;;;6.47;5.40;;;16.70;99.90;;;;;;5051846;28;20276;-76
2023/05/04 04:37:04;;;;;;;6.53;5.15;;;16.80;99.90;;;;;;5051401;28;20238;-75
2023/05/04 04:39:32;;;;;;;6.10;4.88;;;16.80;99.90;;;;;;5036135;28;20285;-73
2023/05/04 04:41:59;;;;;;;7.20;4.95;;;16.80;99.90;;;;;;5030982;28;20203;-73
2023/05/04 04:44:25;;;;;;;6.53;5.45;;;16.80;99.90;;;;;;5031798;28;20266;-74
2023/05/04 04:46:54;;;;;;;5.53;4.97;;;16.80;99.90;;;;;;5032176;28;20211;-76
2023/05/04 04:49:21;;;;;;;7.53;4.45;;;16.70;99.90;;;;;;5031944;28;20285;-75
2023/05/04 04:51:48;;;;;;;5.72;5.07;;;16.80;99.90;;;;;;5031614;28;20243;-77
2023/05/04 04:54:15;;;;;;;7.50;5.05;;;16.70;99.90;;;;;;5030308;28;20619;-74
2023/05/04 04:56:43;;;;;;;6.82;5.72;;;16.80;99.90;;;;;;5031432;28;20239;-71
2023/05/04 04:59:11;;;;;;;8.50;5.43;;;16.80;99.90;;;;;;5030938;28;20208;-74
2023/05/04 05:01:38;;;;;;;8.18;5.93;;;16.80;99.90;;;;;;5031322;28;20211;-76
2023/05/04 05:04:06;;;;;;;7.70;5.63;;;16.70;99.90;;;;;;5030344;28;20701;-76
2023/05/04 05:06:33;;;;;;;13.65;4.60;;;16.80;99.90;;;;;;5031350;28;20243;-76
2023/05/04 05:09:00;;;;;;;6.93;5.20;;;16.80;99.90;;;;;;5030569;28;20239;-75
2023/05/04 05:11:27;;;;;;;6.35;5.63;;;16.80;99.90;;;;;;5031269;28;20690;-76
2023/05/04 05:13:54;;;;;;;8.90;5.35;;;16.80;99.90;;;;;;5031275;28;20297;-73
2023/05/04 05:16:21;;;;;;;6.05;4.30;;;16.80;99.90;;;;;;5031638;28;20204;-76
2023/05/04 05:18:48;;;;;;;6.00;5.30;;;16.80;99.90;;;;;;5031143;28;20227;-77
2023/05/04 05:21:17;;;;;;;9.95;5.68;;;16.80;99.90;;;;;;5030788;28;20247;-77
2023/05/04 05:23:43;;;;;;;7.43;6.28;;;16.80;99.90;;;;;;5030758;28;20613;-77
2023/05/04 05:26:10;;;;;;;9.88;5.20;;;16.80;99.90;;;;;;5030681;28;20266;-77
2023/05/04 05:28:37;;;;;;;8.98;4.85;;;16.90;99.90;;;;;;5030966;28;20671;-75
2023/05/04 05:31:05;;;;;;;7.90;5.88;;;16.90;99.90;;;;;;5030736;28;20304;-76
2023/05/04 05:33:32;;;;;;;8.45;5.25;;;16.90;99.90;;;;;;5030890;28;20281;-72
2023/05/04 05:35:59;;;;;;;5.95;4.60;;;16.90;99.90;;;;;;5030622;28;20301;-77
2023/05/04 05:38:27;;;;;;;9.60;5.07;;;16.90;99.90;;;;;;5030377;28;20243;-74
2023/05/04 05:40:54;;;;;;;11.13;4.63;;;16.90;99.90;;;;;;5031107;28;20239;-70
2023/05/04 05:43:21;;;;;;;7.15;4.97;;;16.90;99.90;;;;;;5031262;28;20215;-73
2023/05/04 05:45:48;;;;;;;9.98;6.07;;;16.90;99.90;;;;;;5030763;28;20234;-75
2023/05/04 05:48:15;;;;;;;10.95;6.30;;;16.90;99.90;;;;;;5030544;28;20214;-76
2023/05/04 05:50:42;;;;;;;9.43;5.15;;;16.90;99.90;;;;;;5030743;28;20207;-74
2023/05/04 05:53:09;;;;;;;7.10;4.97;;;16.90;99.90;;;;;;5030107;28;20246;-75
2023/05/04 05:55:37;;;;;;;9.57;6.50;;;17.00;99.90;;;;;;5031433;28;20743;-76
2023/05/04 05:58:04;;;;;;;11.00;5.70;;;17.00;99.90;;;;;;5030156;28;20243;-77
2023/05/04 06:00:31;;;;;;;9.20;5.72;;;17.00;99.90;;;;;;5030659;28;20688;-75
2023/05/04 06:02:58;;;;;;;10.63;5.50;;;17.00;99.90;;;;;;5030071;28;20247;-75
2023/05/04 06:05:25;;;;;;;14.93;5.20;;;17.00;99.90;;;;;;5030865;28;20278;-70
2023/05/04 06:07:52;;;;;;;11.35;5.32;;;17.10;99.90;;;;;;5034879;28;20209;-76
2023/05/04 06:10:19;;;;;;;10.63;5.45;;;17.10;99.90;;;;;;5034104;28;20239;-70
2023/05/04 06:12:47;;;;;;;7.97;5.85;;;17.10;99.90;;;;;;5034528;28;20238;-75
2023/05/04 06:15:14;;;;;;;15.32;6.38;;;17.20;99.90;;;;;;5033911;28;20251;-76
2023/05/04 06:17:42;;;;;;;11.68;6.00;;;17.20;99.90;;;;;;5034390;28;20249;-76
2023/05/04 06:20:09;;;;;;;9.35;5.30;;;17.20;99.90;;;;;;5034072;28;20238;-76
2023/05/04 06:22:36;;;;;;;15.18;5.78;;;17.30;99.90;;;;;;5034410;28;20227;-73
2023/05/04 06:25:04;;;;;;;16.38;5.72;;;17.40;99.90;;;;;;5033944;28;20270;-76
2023/05/04 06:27:31;;;;;;;11.88;5.70;;;17.40;99.90;;;;;;5034196;28;20247;-71
2023/05/04 06:30:00;;;;;;;12.15;5.40;;;17.40;99.90;;;;;;5040500;28;20206;-74
2023/05/04 06:32:27;;;;;;;10.35;5.53;;;17.50;99.90;;;;;;5035080;28;20239;-80
2023/05/04 06:34:54;;;;;;;12.13;5.03;;;17.50;99.90;;;;;;5034378;28;20199;-73
2023/05/04 06:37:22;;;;;;;11.27;5.35;;;17.60;99.90;;;;;;5034089;28;20208;-81
2023/05/04 06:39:49;;;;;;;12.90;6.57;;;17.60;99.90;;;;;;5034159;28;20223;-80
2023/05/04 06:42:16;;;;;;;20.90;6.00;;;17.60;99.90;;;;;;5041443;28;20644;-79
2023/05/04 06:44:43;;;;;;;18.98;5.22;;;17.70;99.90;;;;;;5053675;28;20651;-78
2023/05/04 06:47:11;;;;;;;9.60;4.72;;;17.70;99.90;;;;;;5053579;28;20260;-80
2023/05/04 06:49:38;;;;;;;10.07;6.22;;;17.70;99.90;;;;;;5053741;28;20277;-79
2023/05/04 06:52:05;;;;;;;15.32;5.07;;;17.80;99.90;;;;;;5052276;28;20689;-80
2023/05/04 06:54:32;;;;;;;10.77;4.60;;;17.80;99.90;;;;;;5053876;28;20303;-79
2023/05/04 06:56:59;;;;;;;10.65;4.63;;;17.90;99.90;;;;;;5053183;28;20215;-80
2023/05/04 06:59:26;;;;;;;13.88;4.90;;;18.00;99.90;;;;;;5052214;28;20252;-80
2023/05/04 07:01:53;;;;;;;14.30;5.13;;;18.00;99.90;;;;;;5044605;28;20215;-80
2023/05/04 07:04:22;;;;;;;18.40;6.45;;;18.10;99.90;;;;;;5033539;28;20200;-79
2023/05/04 07:06:49;;;;;;;17.55;6.05;;;18.20;99.90;;;;;;5045585;28;20262;-77
2023/05/04 07:09:17;;;;;;;9.15;4.22;;;18.40;99.90;;;;;;5051900;28;20208;-79
2023/05/04 07:11:44;;;;;;;10.15;5.60;;;18.40;99.90;;;;;;5052963;28;20210;-79
2023/05/04 07:14:11;;;;;;;11.50;4.60;;;18.40;99.90;;;;;;5051365;28;20202;-85
2023/05/04 07:16:38;;;;;;;15.18;5.38;;;18.30;99.90;;;;;;5045817;28;20702;-84
2023/05/04 07:19:05;;;;;;;18.63;5.15;;;18.40;99.90;;;;;;5046291;28;20234;-81
2023/05/04 07:21:34;;;;;;;12.98;4.95;;;18.40;99.90;;;;;;5051873;28;20212;-70
2023/05/04 07:24:01;;;;;;;13.15;5.63;;;18.40;99.90;;;;;;5052799;28;20241;-73
2023/05/04 07:26:27;;;;;;;12.55;5.35;;;18.50;99.90;;;;;;5053034;28;20234;-73
2023/05/04 07:28:54;;;;;;;8.73;4.40;;;18.60;99.90;;;;;;5052097;28;20242;-76
2023/05/04 07:31:21;;;;;;;10.20;4.72;;;18.70;99.90;;;;;;5053537;28;20246;-76
2023/05/04 07:33:49;;;;;;;11.77;4.55;;;18.90;99.90;;;;;;5051948;28;20242;-77
2023/05/04 07:36:15;;;;;;;10.95;4.35;;;18.90;99.90;;;;;;5052727;28;20589;-76
2023/05/04 07:38:44;;;;;;;9.63;3.13;;;18.90;99.90;;;;;;5053103;28;20210;-76
2023/05/04 07:41:11;;;;;;;15.43;4.35;;;19.00;99.90;;;;;;5052294;28;20298;-76
2023/05/04 07:43:38;;;;;;;12.75;4.68;;;19.10;99.90;;;;;;5052961;28;20238;-77
2023/05/04 07:46:05;;;;;;;12.63;5.13;;;19.20;99.90;;;;;;5052586;28;20343;-76
2023/05/04 07:48:33;;;;;;;9.50;3.85;;;19.40;99.90;;;;;;5052638;28;20202;-77
2023/05/04 07:51:00;;;;;;;10.98;4.68;;;19.60;99.90;;;;;;5052381;28;20239;-77
2023/05/04 07:53:27;;;;;;;8.93;4.05;;;19.60;99.90;;;;;;5052787;28;20241;-77
2023/05/04 07:55:56;;;;;;;13.13;5.00;;;19.50;99.90;;;;;;5052678;28;20202;-75
2023/05/04 07:58:23;;;;;;;9.68;3.72;;;19.30;99.90;;;;;;5053083;28;20234;-76
2023/05/04 08:00:50;;;;;;;11.85;4.90;;;19.20;99.90;;;;;;5064527;28;20685;-74
2023/05/04 08:03:17;;;;;;;16.65;5.95;;;19.10;99.90;;;;;;5061405;28;20250;-78
2023/05/04 08:05:44;;;;;;;11.90;4.05;;;19.10;99.90;;;;;;5060200;28;20708;-77
2023/05/04 08:08:10;;;;;;;7.22;3.53;;;19.20;99.90;;;;;;5061365;28;20292;-78
2023/05/04 08:10:38;;;;;;;7.40;4.32;;;19.30;99.90;;;;;;5052409;28;20230;-75
2023/05/04 08:13:06;;;;;;;8.38;4.05;;;19.30;99.90;;;;;;5052073;28;20207;-77
2023/05/04 08:15:33;;;;;;;10.10;4.20;;;19.40;99.90;;;;;;5050779;28;20690;-77
2023/05/04 08:18:00;;;;;;;11.05;4.25;;;19.50;99.90;;;;;;5051624;28;20300;-77
2023/05/04 08:20:27;;;;;;;8.10;4.45;;;19.60;99.90;;;;;;5052239;28;20242;-78
2023/05/04 08:22:54;;;;;;;8.50;4.03;;;19.80;99.90;;;;;;5052023;28;20249;-77
2023/05/04 08:25:22;;;;;;;9.07;4.45;;;19.90;99.90;;;;;;5052050;28;20257;-79
2023/05/04 08:27:48;;;;;;;10.32;4.72;;;20.10;99.90;;;;;;5052302;28;20635;-79
2023/05/04 08:30:17;;;;;;;10.23;5.22;;;20.00;99.90;;;;;;5051602;28;20258;-79
2023/05/04 08:32:44;;;;;;;7.43;4.13;;;20.20;99.90;;;;;;5051750;28;20276;-74
2023/05/04 08:35:11;;;;;;;7.00;3.70;;;20.50;99.90;;;;;;5050391;28;20203;-76
2023/05/04 08:37:38;;;;;;;8.45;3.78;;;20.50;99.90;;;;;;5044927;28;20239;-75
2023/05/04 08:40:06;;;;;;;7.75;4.78;;;20.50;99.90;;;;;;5040292;28;20277;-75
2023/05/04 08:42:33;;;;;;;8.52;4.32;;;20.50;99.90;;;;;;5031866;28;20242;-75
2023/05/04 08:45:01;;;;;;;8.27;3.78;;;20.60;99.90;;;;;;5036788;28;20262;-75
2023/05/04 08:47:29;;;;;;;8.10;3.97;;;20.70;99.90;;;;;;5048696;28;20203;-76
2023/05/04 08:49:56;;;;;;;7.68;5.30;;;20.70;99.90;;;;;;5049736;28;20253;-76
2023/05/04 08:52:24;;;;;;;9.20;4.43;;;20.80;99.90;;;;;;5051424;28;20678;-76
2023/05/04 08:54:55;;;;;;;6.85;3.67;;;20.80;99.90;;;;;;5051659;28;20234;-76
2023/05/04 08:57:24;;;;;;;6.35;3.88;;;20.80;99.90;;;;;;5054168;28;20206;-75
2023/05/04 08:59:52;;;;;;;6.22;3.65;;;20.80;99.90;;;;;;5035474;28;20249;-81
2023/05/04 09:02:21;;;;;;;5.22;3.60;;;21.00;99.90;;;;;;5051285;28;20313;-78
2023/05/04 09:04:49;;;;;;;8.25;3.63;;;21.30;99.90;;;;;;5051683;28;20210;-86
2023/05/04 09:07:17;;;;;;;9.10;3.95;;;21.30;99.90;;;;;;5050757;28;20241;-79
2023/05/04 09:09:45;;;;;;;12.63;5.00;;;21.30;99.90;;;;;;5051208;28;20860;-82
2023/05/04 09:12:12;;;;;;;8.63;3.72;;;21.30;99.90;;;;;;5050514;28;20205;-79
2023/05/04 09:14:40;;;;;;;10.45;4.03;;;21.40;99.90;;;;;;5051091;28;20245;-82
2023/05/04 09:17:15;;;;;;;9.02;4.13;;;21.50;99.90;;;;;;5050575;28;20215;-81
2023/05/04 09:19:43;;;;;;;8.77;4.50;;;21.70;99.90;;;;;;5051021;28;20575;-81
2023/05/04 09:22:26;;;;;;;7.13;4.28;;;22.00;99.90;;;;;;5051175;28;20210;-83
2023/05/04 09:24:53;;;;;;;9.27;3.80;;;22.10;99.90;;;;;;5049243;28;20210;-82
2023/05/04 09:27:21;;;;;;;10.77;3.47;;;22.70;99.90;;;;;;5049765;28;20234;-82
2023/05/04 09:29:53;;;;;;;8.50;4.78;;;22.80;99.90;;;;;;5049201;28;20207;-77
2023/05/04 09:32:20;;;;;;;6.53;4.40;;;22.50;99.90;;;;;;5049900;28;20231;-80
2023/05/04 09:34:49;;;;;;;8.68;4.47;;;23.00;99.90;;;;;;5049883;28;20694;-78
2023/05/04 09:37:17;;;;;;;7.55;3.00;;;24.20;99.90;;;;;;5049746;28;20215;-80
2023/05/04 09:39:56;;;;;;;10.32;4.47;;;25.20;99.90;;;;;;5050662;28;20407;-77
2023/05/04 09:42:23;;;;;;;8.70;3.90;;;24.60;99.90;;;;;;5030732;28;20709;-80
2023/05/04 09:45:00;;;;;;;9.95;3.70;;;24.00;99.90;;;;;;5030866;28;20238;-77
2023/05/04 09:47:35;;;;;;;6.15;3.45;;;23.20;99.90;;;;;;5030703;28;20243;-76
2023/05/04 09:50:17;;;;;;;6.03;3.97;;;23.70;99.90;;;;;;5030208;28;20237;-76
2023/05/04 09:52:46;;;;;;;4.25;3.42;;;23.80;99.90;;;;;;5041901;28;20210;-78
2023/05/04 09:55:18;;;;;;;5.68;3.72;;;24.20;99.90;;;;;;5050335;28;20234;-76
2023/05/04 09:57:46;;;;;;;7.65;3.63;;;25.40;99.90;;;;;;5050538;28;20246;-77
2023/05/04 10:00:16;;;;;;;4.03;3.25;;;27.40;99.90;;;;;;5049986;28;20246;-76
2023/05/04 10:02:43;;;;;;;6.03;4.05;;;27.10;99.90;;;;;;5050555;28;20245;-85
2023/05/04 10:05:14;;;;;;;6.53;4.15;;;28.40;99.90;;;;;;5050395;28;20241;-81
2023/05/04 10:07:42;;;;;;;8.57;3.45;;;27.20;99.90;;;;;;5050341;28;20222;-74
2023/05/04 10:10:12;;;;;;;5.43;4.07;;;28.40;99.90;;;;;;5049313;28;20272;-75
2023/05/04 10:12:40;;;;;;;4.78;3.50;;;29.50;99.90;;;;;;5050048;28;20640;-71
2023/05/04 10:15:08;;;;;;;6.90;3.67;;;30.80;99.90;;;;;;5049842;28;20206;-71
2023/05/04 10:17:50;;;;;;;7.00;3.83;;;31.60;99.90;;;;;;5049977;28;20250;-70
2023/05/04 10:20:42;;;;;;;6.47;4.35;;;32.20;99.90;;;;;;5042746;28;20214;-79
2023/05/04 10:23:34;;;;;;;5.97;3.58;;;30.60;99.90;;;;;;5035255;28;20253;-75
2023/05/04 10:26:25;;;;;;;9.00;4.05;;;28.30;99.90;;;;;;5042914;28;20321;-69
2023/05/04 10:29:03;;;;;;;7.70;3.85;;;26.70;99.90;;;;;;5050185;28;20223;-68
2023/05/04 10:31:38;;;;;;;11.88;5.40;;;25.50;99.90;;;;;;5050211;28;20231;-70
2023/05/04 10:34:05;;;;;;;5.32;4.00;;;24.80;99.90;;;;;;5034879;28;20254;-72
2023/05/04 10:36:36;;;;;;;8.68;3.97;;;24.60;99.90;;;;;;5030462;28;20269;-70
2023/05/04 10:39:04;;;;;;;4.45;3.45;;;24.30;99.90;;;;;;5044529;28;20199;-73
2023/05/04 10:41:31;;;;;;;6.53;4.40;;;24.40;99.90;;;;;;5029830;28;20679;-73
2023/05/04 10:44:05;;;;;;;10.98;4.97;;;24.40;99.90;;;;;;5040350;28;20213;-78
2023/05/04 10:46:31;;;;;;;9.15;4.18;;;24.30;99.90;;;;;;5045187;28;20226;-75
2023/05/04 10:48:58;;;;;;;9.18;4.22;;;24.10;99.90;;;;;;5045358;28;20253;-75
2023/05/04 10:51:26;;;;;;;8.88;4.47;;;23.90;99.90;;;;;;5041008;28;20200;-76
2023/05/04 10:53:53;;;;;;;5.40;3.42;;;23.50;99.90;;;;;;5052721;28;20242;-76
2023/05/04 10:56:22;;;;;;;6.45;3.22;;;23.70;99.90;;;;;;5053284;28;20218;-75
2023/05/04 10:58:49;;;;;;;8.63;3.50;;;23.70;99.90;;;;;;5054148;28;20581;-75
2023/05/04 11:01:18;;;;;;;8.98;4.47;;;23.70;99.90;;;;;;5053210;28;20250;-75
2023/05/04 11:03:45;;;;;;;8.30;3.70;;;23.60;99.90;;;;;;5053545;28;20233;-75
2023/05/04 11:06:17;;;;;;;6.57;3.80;;;23.50;99.90;;;;;;5053310;28;20234;-76
2023/05/04 11:08:45;;;;;;;4.85;3.65;;;23.80;99.90;;;;;;5053103;28;20207;-74
2023/05/04 11:11:12;;;;;;;7.72;3.83;;;23.90;99.90;;;;;;5052917;28;20743;-74
2023/05/04 11:13:45;;;;;;;10.10;5.60;;;23.60;99.90;;;;;;5053155;28;20241;-74
2023/05/04 11:16:12;;;;;;;10.63;4.63;;;23.50;99.90;;;;;;5052679;28;20694;-73
2023/05/04 11:18:41;;;;;;;9.35;4.40;;;23.30;99.90;;;;;;5053346;28;20577;-73
2023/05/04 11:21:09;;;;;;;8.07;4.57;;;23.50;99.90;;;;;;5048026;28;20215;-76
2023/05/04 11:23:37;;;;;;;7.25;4.20;;;23.60;99.90;;;;;;5043863;28;20621;-73
2023/05/04 11:26:07;;;;;;;6.20;4.75;;;23.70;99.90;;;;;;5032576;28;20203;-73
2023/05/04 11:28:34;;;;;;;9.95;3.97;;;23.90;99.90;;;;;;5048567;28;20211;-73
2023/05/04 11:31:02;;;;;;;8.52;4.78;;;24.00;99.90;;;;;;5052723;28;20237;-73
2023/05/04 11:33:29;;;;;;;12.00;4.95;;;24.10;99.90;;;;;;5052410;28;20242;-73
2023/05/04 11:36:04;;;;;;;9.75;4.70;;;24.10;99.90;;;;;;5052208;28;20203;-72
2023/05/04 11:38:31;;;;;;;6.38;4.53;;;23.90;99.90;;;;;;5052317;28;20210;-73
2023/05/04 11:40:58;;;;;;;10.70;4.20;;;24.00;99.90;;;;;;5052408;28;20243;-74
2023/05/04 11:43:25;;;;;;;7.30;4.40;;;24.10;99.90;;;;;;5052768;28;20799;-74
2023/05/04 11:45:54;;;;;;;8.07;4.03;;;24.00;99.90;;;;;;5053277;28;20238;-73
2023/05/04 11:48:22;;;;;;;7.15;4.63;;;24.00;99.90;;;;;;5053106;28;20242;-73
2023/05/04 11:50:48;;;;;;;6.38;4.20;;;24.00;99.90;;;;;;5052828;28;20669;-73
2023/05/04 11:53:20;;;;;;;6.93;3.88;;;23.90;99.90;;;;;;5052167;28;20675;-73
2023/05/04 11:55:47;;;;;;;4.82;4.07;;;24.10;99.90;;;;;;5052544;28;20231;-73
2023/05/04 11:58:14;;;;;;;7.28;3.60;;;24.20;99.90;;;;;;5051812;28;20822;-73
2023/05/04 12:00:42;;;;;;;5.00;3.97;;;24.00;99.90;;;;;;5052435;28;20215;-73
2023/05/04 12:03:12;;;;;;;7.30;3.60;;;23.90;99.90;;;;;;5051629;28;20250;-74
2023/05/04 12:05:39;;;;;;;8.65;4.57;;;24.20;99.90;;;;;;5052180;28;20214;-74
2023/05/04 12:08:11;;;;;;;7.10;4.00;;;24.10;99.90;;;;;;5051967;28;20706;-73
2023/05/04 12:10:40;;;;;;;6.90;4.00;;;24.10;99.90;;;;;;5052298;28;20286;-73
2023/05/04 12:13:16;;;;;;;10.38;3.72;;;24.00;99.90;;;;;;5047025;28;20738;-73
2023/05/04 12:15:43;;;;;;;7.63;3.17;;;24.10;99.90;;;;;;5050994;28;20221;-73
2023/05/04 12:18:20;;;;;;;9.60;3.97;;;24.20;99.90;;;;;;5051470;28;20265;-74
2023/05/04 12:20:48;;;;;;;7.25;3.88;;;24.30;99.90;;;;;;5051864;28;20211;-73
2023/05/04 12:23:15;;;;;;;8.15;4.28;;;24.30;99.90;;;;;;5051465;28;20247;-73
2023/05/04 12:25:43;;;;;;;10.07;4.63;;;24.30;99.90;;;;;;5042905;28;20222;-73
2023/05/04 12:28:10;;;;;;;10.98;3.88;;;24.40;99.90;;;;;;5050342;28;20346;-73
2023/05/04 12:30:37;;;;;;;5.93;3.42;;;24.40;99.90;;;;;;5051479;28;20218;-73
2023/05/04 12:33:04;;;;;;;8.10;3.60;;;24.50;99.90;;;;;;5050534;28;20214;-72
2023/05/04 12:35:31;;;;;;;6.07;3.67;;;24.60;99.90;;;;;;5042540;28;20648;-77
2023/05/04 12:37:58;;;;;;;6.60;3.45;;;24.50;99.90;;;;;;5046150;28;20230;-74
2023/05/04 12:40:25;;;;;;;8.60;4.25;;;24.40;99.90;;;;;;5050548;28;20590;-72
2023/05/04 12:42:54;;;;;;;7.85;4.57;;;24.40;99.90;;;;;;5047037;28;20211;-74
2023/05/04 12:45:21;;;;;;;5.95;4.05;;;24.50;99.90;;;;;;5050133;28;20629;-75
2023/05/04 12:47:48;;;;;;;10.80;3.83;;;24.70;99.90;;;;;;5050410;28;20591;-74
2023/05/04 12:50:15;;;;;;;7.82;3.85;;;24.80;99.90;;;;;;5049713;28;20207;-74